Time;durP1;ratioP1;P1;durP2;ratioP2;P2;SDS_P1;SDS_P2;PMS_P1;PMS_P2;Temp;Humidity;BMP_temperature;BMP_pressure;BME280_temperature;BME280_humidity;BME280_pressure;Samples;Min_cycle;Max_cycle;Signal;HPM_P1;HPM_P2
2021/04/04 00:08:09;;;;;;;1.33;1.00;;;13.70;99.90;;;;;;20747931;28;20289;-71
2021/04/04 00:18:12;;;;;;;0.50;0.43;;;13.60;99.90;;;;;;20746624;28;20585;-71
2021/04/04 00:28:15;;;;;;;0.20;0.20;;;13.40;99.90;;;;;;20747196;28;20301;-71
2021/04/04 00:38:18;;;;;;;1.40;0.53;;;13.10;99.90;;;;;;20745783;28;20311;-71
2021/04/04 00:48:21;;;;;;;1.60;1.33;;;12.90;99.90;;;;;;20745518;28;20218;-71
2021/04/04 00:58:24;;;;;;;0.80;0.37;;;12.50;99.90;;;;;;20743762;28;20317;-71
2021/04/04 01:08:27;;;;;;;0.60;0.60;;;12.30;99.90;;;;;;20742639;28;20203;-72
2021/04/04 01:18:34;;;;;;;2.33;0.97;;;12.20;99.90;;;;;;20726031;28;20261;-71
2021/04/04 01:28:40;;;;;;;3.17;0.87;;;12.20;99.90;;;;;;20742379;28;20194;-70
2021/04/04 01:38:45;;;;;;;0.53;0.20;;;12.10;99.90;;;;;;20764708;28;20239;-71
2021/04/04 01:48:49;;;;;;;0.30;0.30;;;12.10;99.90;;;;;;20824501;28;20281;-71
2021/04/04 01:58:52;;;;;;;0.77;0.77;;;12.00;99.90;;;;;;20803840;28;20186;-70
2021/04/04 02:08:56;;;;;;;0.50;0.30;;;12.00;99.90;;;;;;20820009;28;20194;-69
2021/04/04 02:18:58;;;;;;;1.03;0.93;;;12.10;99.90;;;;;;20820129;28;20277;-72
2021/04/04 02:29:04;;;;;;;1.37;1.33;;;12.00;99.90;;;;;;20802017;28;20606;-72
2021/04/04 02:39:13;;;;;;;0.50;0.47;;;12.00;99.90;;;;;;20773762;28;20229;-71
2021/04/04 02:49:18;;;;;;;0.83;0.53;;;12.30;99.90;;;;;;20736014;28;20238;-71
2021/04/04 02:59:25;;;;;;;0.43;0.37;;;12.50;99.90;;;;;;20735537;28;20763;-72
2021/04/04 03:09:31;;;;;;;2.57;1.93;;;12.60;99.90;;;;;;20735216;28;20250;-70
2021/04/04 03:19:34;;;;;;;0.97;0.97;;;12.60;99.90;;;;;;20733755;28;20294;-72
2021/04/04 03:29:40;;;;;;;1.40;0.70;;;12.60;99.90;;;;;;20733543;28;20254;-71
2021/04/04 03:39:44;;;;;;;1.63;0.87;;;12.60;99.90;;;;;;20715471;28;20246;-71
2021/04/04 03:49:48;;;;;;;0.50;0.50;;;12.40;99.90;;;;;;20733275;28;20236;-71
2021/04/04 03:59:54;;;;;;;0.83;0.80;;;12.30;99.90;;;;;;20715169;28;20791;-71
2021/04/04 04:09:59;;;;;;;0.50;0.50;;;12.10;99.90;;;;;;20731925;28;20227;-70
2021/04/04 04:20:01;;;;;;;0.47;0.30;;;11.80;99.90;;;;;;20731832;28;20286;-70
2021/04/04 04:30:07;;;;;;;1.47;1.40;;;12.00;99.90;;;;;;20730919;28;20262;-73
2021/04/04 04:40:11;;;;;;;2.77;1.30;;;12.10;99.90;;;;;;20781281;28;20316;-72
2021/04/04 04:50:15;;;;;;;0.30;0.30;;;12.00;99.90;;;;;;20827381;28;20304;-72
2021/04/04 05:00:18;;;;;;;1.10;0.70;;;11.90;99.90;;;;;;20826520;28;20313;-73
2021/04/04 05:10:22;;;;;;;1.43;0.70;;;11.80;99.90;;;;;;20825241;28;20304;-72
2021/04/04 05:20:25;;;;;;;0.97;0.40;;;11.80;99.90;;;;;;20825504;28;20277;-71
2021/04/04 05:30:28;;;;;;;0.30;0.30;;;11.80;99.90;;;;;;20823868;28;20237;-73
2021/04/04 05:40:31;;;;;;;0.83;0.83;;;11.90;99.90;;;;;;20766199;28;20644;-70
2021/04/04 05:50:47;;;;;;;0.67;0.67;;;12.00;99.90;;;;;;20740250;28;20310;-71
2021/04/04 06:00:56;;;;;;;0.47;0.47;;;12.00;99.90;;;;;;20739750;28;20230;-73
2021/04/04 06:11:08;;;;;;;15.03;1.40;;;12.00;99.90;;;;;;20739019;28;20227;-73
2021/04/04 06:21:19;;;;;;;0.20;0.10;;;12.10;99.90;;;;;;20738050;28;20718;-72
2021/04/04 06:31:34;;;;;;;1.03;0.50;;;11.80;99.90;;;;;;20719173;28;20625;-73
2021/04/04 06:42:10;;;;;;;5.30;0.97;;;12.00;99.90;;;;;;20782842;28;20218;-71
2021/04/04 06:52:30;;;;;;;0.50;0.50;;;12.10;99.90;;;;;;20765343;28;20321;-72
2021/04/04 07:02:41;;;;;;;0.40;0.40;;;12.30;99.90;;;;;;20815297;28;20237;-72
2021/04/04 07:13:28;;;;;;;1.00;0.97;;;12.50;99.90;;;;;;20815453;28;20320;-73
2021/04/04 07:23:52;;;;;;;0.70;0.47;;;12.70;99.90;;;;;;20794588;28;20274;-71
2021/04/04 07:34:05;;;;;;;0.33;0.33;;;13.00;99.90;;;;;;20813377;28;20241;-73
2021/04/04 07:44:19;;;;;;;1.07;0.73;;;13.40;99.90;;;;;;20728414;28;20341;-72
2021/04/04 07:54:29;;;;;;;32.23;2.47;;;13.80;99.90;;;;;;20730479;28;20337;-73
2021/04/04 08:04:40;;;;;;;0.80;0.80;;;14.20;99.90;;;;;;20732577;28;20202;-72
2021/04/04 08:14:51;;;;;;;0.77;0.53;;;14.70;99.90;;;;;;20747418;28;20257;-71
2021/04/04 08:25:01;;;;;;;1.17;0.90;;;15.30;99.90;;;;;;20757035;28;20281;-72
2021/04/04 08:35:08;;;;;;;18.83;1.47;;;15.60;99.90;;;;;;20770648;28;20230;-72
2021/04/04 08:45:15;;;;;;;0.77;0.47;;;15.80;99.90;;;;;;20821441;28;20365;-69
2021/04/04 08:55:22;;;;;;;17.13;1.20;;;15.50;99.90;;;;;;20826433;28;20225;-69
2021/04/04 09:05:28;;;;;;;0.70;0.70;;;16.30;99.90;;;;;;20822461;28;20214;-69
2021/04/04 09:15:32;;;;;;;0.20;0.20;;;16.90;99.90;;;;;;20822733;28;20264;-71
2021/04/04 09:25:48;;;;;;;3.23;0.93;;;17.30;99.90;;;;;;20805204;28;20198;-70
2021/04/04 09:35:56;;;;;;;1.43;1.33;;;17.50;99.90;;;;;;20821745;28;20225;-71
2021/04/04 09:46:07;;;;;;;0.20;0.20;;;17.80;99.90;;;;;;20738817;28;20237;-70
2021/04/04 09:56:12;;;;;;;0.50;0.50;;;17.70;99.90;;;;;;20737489;28;20745;-71
2021/04/04 10:06:15;;;;;;;2.67;1.33;;;18.20;99.90;;;;;;20719517;28;20191;-70
2021/04/04 10:16:23;;;;;;;0.83;0.63;;;18.80;99.90;;;;;;20735628;28;20223;-70
2021/04/04 10:26:26;;;;;;;2.83;1.40;;;19.10;99.90;;;;;;20760713;28;20706;-68
2021/04/04 10:36:29;;;;;;;1.13;0.90;;;18.90;99.90;;;;;;20766431;28;20235;-71
2021/04/04 10:46:34;;;;;;;1.43;1.00;;;18.70;99.90;;;;;;20733556;28;20307;-78
2021/04/04 10:56:37;;;;;;;0.40;0.40;;;19.10;99.90;;;;;;20667109;28;20783;-70
2021/04/04 11:06:42;;;;;;;0.53;0.53;;;19.10;99.90;;;;;;20651101;28;20558;-69
2021/04/04 11:16:48;;;;;;;1.30;1.03;;;19.10;99.90;;;;;;20683841;28;20325;-71
2021/04/04 11:26:54;;;;;;;1.60;1.33;;;20.00;99.90;;;;;;20709299;28;20245;-72
2021/04/04 11:36:58;;;;;;;1.47;1.10;;;19.10;99.90;;;;;;20731072;28;20233;-71
2021/04/04 11:47:03;;;;;;;5.10;2.10;;;21.40;99.90;;;;;;20753307;28;20272;-73
2021/04/04 11:57:06;;;;;;;7.23;4.57;;;20.90;99.90;;;;;;20754532;28;20868;-69
2021/04/04 12:07:10;;;;;;;1.93;1.27;;;21.40;99.90;;;;;;20790475;28;20194;-73
2021/04/04 12:17:13;;;;;;;0.80;0.47;;;21.70;99.90;;;;;;20793070;28;20245;-70
2021/04/04 12:27:20;;;;;;;0.47;0.40;;;21.00;99.90;;;;;;20775632;28;20803;-69
2021/04/04 12:37:24;;;;;;;1.27;1.00;;;22.40;99.90;;;;;;20803779;28;20224;-70
2021/04/04 12:47:28;;;;;;;0.53;0.50;;;23.00;99.90;;;;;;20783689;28;20260;-69
2021/04/04 12:57:31;;;;;;;0.53;0.53;;;21.80;99.90;;;;;;20809382;28;20256;-72
2021/04/04 13:07:34;;;;;;;0.63;0.63;;;23.50;99.90;;;;;;20727489;28;20218;-74
2021/04/04 13:17:47;;;;;;;0.57;0.50;;;23.10;99.90;;;;;;20742558;28;20719;-70
2021/04/04 13:27:51;;;;;;;3.33;0.40;;;22.50;99.90;;;;;;20719199;28;20214;-72
2021/04/04 13:37:53;;;;;;;1.03;0.73;;;23.80;99.90;;;;;;20763349;28;20261;-71
2021/04/04 13:48:00;;;;;;;2.27;1.10;;;24.10;99.90;;;;;;20733153;28;20223;-71
2021/04/04 13:58:06;;;;;;;0.50;0.50;;;24.70;99.90;;;;;;20735838;28;20222;-71
2021/04/04 14:08:09;;;;;;;1.23;1.13;;;24.80;99.90;;;;;;20739037;28;20219;-72
2021/04/04 14:18:12;;;;;;;0.88;0.70;;;25.00;99.90;;;;;;20738656;28;20231;-73
2021/04/04 14:28:15;;;;;;;0.90;0.53;;;24.80;99.90;;;;;;20758109;28;20202;-72
2021/04/04 14:38:20;;;;;;;2.10;0.77;;;25.30;99.90;;;;;;20776533;28;20688;-69
2021/04/04 14:48:24;;;;;;;0.43;0.30;;;24.90;99.90;;;;;;20742701;28;20672;-71
2021/04/04 14:58:33;;;;;;;0.40;0.40;;;25.00;99.90;;;;;;20730528;28;20227;-68
2021/04/04 15:08:37;;;;;;;0.60;0.60;;;24.70;99.90;;;;;;20729744;28;20567;-71
2021/04/04 15:18:41;;;;;;;3.53;0.95;;;24.40;99.90;;;;;;20729429;28;20285;-71
2021/04/04 15:28:44;;;;;;;1.07;1.07;;;24.70;99.90;;;;;;20687477;28;20214;-70
2021/04/04 15:38:49;;;;;;;2.20;1.20;;;24.30;99.90;;;;;;20734531;28;20245;-71
2021/04/04 15:48:53;;;;;;;1.30;1.00;;;24.30;99.90;;;;;;20759023;28;20222;-68
2021/04/04 15:58:57;;;;;;;0.90;0.70;;;23.30;99.90;;;;;;20711328;28;20222;-72
2021/04/04 16:09:01;;;;;;;0.53;0.53;;;21.90;99.90;;;;;;20726507;28;20257;-70
2021/04/04 16:19:04;;;;;;;1.47;0.77;;;20.90;99.90;;;;;;20769574;28;20214;-72
2021/04/04 16:29:11;;;;;;;0.60;0.50;;;20.30;99.90;;;;;;20733027;28;20222;-72
2021/04/04 16:39:13;;;;;;;0.53;0.53;;;19.70;99.90;;;;;;20769087;28;20688;-72
2021/04/04 16:49:17;;;;;;;0.60;0.60;;;19.70;99.90;;;;;;20823534;28;20584;-71
2021/04/04 16:59:20;;;;;;;0.60;0.60;;;19.40;99.90;;;;;;20821898;28;20245;-69
2021/04/04 17:09:23;;;;;;;1.27;0.50;;;18.90;99.90;;;;;;20824517;28;20594;-72
2021/04/04 17:19:26;;;;;;;4.97;1.33;;;18.70;99.90;;;;;;20826748;28;20313;-74
2021/04/04 17:29:30;;;;;;;1.17;1.07;;;18.80;99.90;;;;;;20742498;28;20225;-69
2021/04/04 17:39:32;;;;;;;0.97;0.67;;;19.10;99.90;;;;;;20773604;28;20223;-71
2021/04/04 17:49:36;;;;;;;1.00;0.77;;;18.20;99.90;;;;;;20752083;28;20665;-71
2021/04/04 17:59:39;;;;;;;0.53;0.53;;;17.40;99.90;;;;;;20734707;28;20312;-72
2021/04/04 18:19:54;;;;;;;1.07;0.97;;;16.70;99.90;;;;;;20787793;28;20218;-71
2021/04/04 18:29:58;;;;;;;0.67;0.67;;;16.40;99.90;;;;;;20714218;28;20199;-70
2021/04/04 18:40:00;;;;;;;0.50;0.50;;;16.20;99.90;;;;;;20714000;28;20238;-71
2021/04/04 18:50:06;;;;;;;0.63;0.63;;;16.10;99.90;;;;;;20787491;28;20524;-71
2021/04/04 19:00:11;;;;;;;0.57;0.50;;;15.90;99.90;;;;;;20770574;28;20218;-70
2021/04/04 19:10:15;;;;;;;2.23;1.30;;;15.60;99.90;;;;;;20789800;28;20230;-70
2021/04/04 19:20:18;;;;;;;0.60;0.60;;;15.10;99.90;;;;;;20732673;28;20308;-70
2021/04/04 19:30:23;;;;;;;1.03;0.93;;;14.40;99.90;;;;;;20748275;28;20711;-70
2021/04/04 19:40:28;;;;;;;0.47;0.47;;;14.20;99.90;;;;;;20726945;28;20749;-70
2021/04/04 19:50:31;;;;;;;2.00;1.20;;;14.20;99.90;;;;;;20797732;28;20205;-72
2021/04/04 20:00:34;;;;;;;3.47;1.37;;;13.90;99.90;;;;;;20772589;28;20317;-73
2021/04/04 20:10:37;;;;;;;1.30;1.13;;;13.80;99.90;;;;;;20745435;28;20226;-73
2021/04/04 20:20:40;;;;;;;0.70;0.70;;;13.70;99.90;;;;;;20744973;28;20287;-72
2021/04/04 20:30:43;;;;;;;2.93;1.07;;;13.40;99.90;;;;;;20742289;28;20198;-72
2021/04/04 20:40:47;;;;;;;1.93;0.73;;;13.50;99.90;;;;;;20740791;28;20641;-73
2021/04/04 20:50:51;;;;;;;0.70;0.70;;;13.00;99.90;;;;;;20740363;28;20214;-69
2021/04/04 21:00:54;;;;;;;3.17;1.37;;;12.70;99.90;;;;;;20739973;28;20206;-71
2021/04/04 21:10:57;;;;;;;0.40;0.37;;;12.80;99.90;;;;;;20738317;28;20575;-71
2021/04/04 21:21:01;;;;;;;0.67;0.67;;;12.70;99.90;;;;;;20719441;28;20302;-71
2021/04/04 21:31:05;;;;;;;0.43;0.40;;;12.60;99.90;;;;;;20720944;28;20223;-73
2021/04/04 21:41:07;;;;;;;1.03;0.50;;;12.70;99.90;;;;;;20736282;28;20318;-73
2021/04/04 21:51:11;;;;;;;1.43;0.83;;;12.60;99.90;;;;;;20735136;28;20687;-71
2021/04/04 22:01:14;;;;;;;0.57;0.50;;;12.40;99.90;;;;;;20734876;28;20241;-72
2021/04/04 22:11:21;;;;;;;0.43;0.43;;;12.50;99.90;;;;;;20734524;28;20636;-72
2021/04/04 22:21:25;;;;;;;0.57;0.57;;;12.50;99.90;;;;;;20733212;28;20281;-72
2021/04/04 22:31:28;;;;;;;0.60;0.50;;;12.60;99.90;;;;;;20731802;28;20746;-72
2021/04/04 22:41:31;;;;;;;2.33;1.20;;;12.70;99.90;;;;;;20731259;28;20226;-72
2021/04/04 22:51:34;;;;;;;0.40;0.40;;;12.60;99.90;;;;;;20730536;28;20217;-72
2021/04/04 23:01:37;;;;;;;0.67;0.53;;;12.70;99.90;;;;;;20729948;28;20701;-72
2021/04/04 23:11:41;;;;;;;0.60;0.60;;;12.40;99.90;;;;;;20730296;28;20219;-72
2021/04/04 23:21:45;;;;;;;2.77;1.40;;;12.60;99.90;;;;;;20711741;28;20535;-72
2021/04/04 23:31:49;;;;;;;0.90;0.90;;;13.00;99.90;;;;;;20710222;28;20226;-72
2021/04/04 23:41:52;;;;;;;1.13;0.80;;;12.90;99.90;;;;;;20776240;28;20226;-73
2021/04/04 23:51:56;;;;;;;1.10;1.00;;;12.70;99.90;;;;;;20809078;28;20222;-73
